createdAt,value
2022-11-18T00:00:21.583Z,7.81
2022-11-18T00:03:24.097Z,7.88
2022-11-18T00:06:28.629Z,7.83
2022-11-18T00:09:30.824Z,7.87
2022-11-18T00:12:51.723Z,7.80
2022-11-18T00:16:04.100Z,7.85
2022-11-18T00:19:06.473Z,7.74
2022-11-18T00:22:12.546Z,7.84
2022-11-18T00:25:14.975Z,7.85
2022-11-18T00:28:17.219Z,7.74
2022-11-18T00:36:57.481Z,7.81
2022-11-18T00:39:59.719Z,7.87
2022-11-18T00:43:01.995Z,7.88
2022-11-18T00:46:05.258Z,7.94
2022-11-18T00:49:07.854Z,7.88
2022-11-18T00:52:10.079Z,7.90
2022-11-18T00:55:12.270Z,7.90
2022-11-18T00:58:14.761Z,7.95
2022-11-18T01:01:17.074Z,7.99
2022-11-18T01:04:19.334Z,8.09
2022-11-18T01:07:21.596Z,8.07
2022-11-18T01:10:23.940Z,8.16
2022-11-18T01:13:29.211Z,8.20
2022-11-18T01:16:31.613Z,8.21
2022-11-18T01:19:33.795Z,8.25
2022-11-18T01:22:36.030Z,8.32
2022-11-18T01:25:39.846Z,8.34
2022-11-18T01:28:42.938Z,8.25
2022-11-18T01:32:02.113Z,8.29
2022-11-18T01:35:07.630Z,8.34
2022-11-18T01:38:14.325Z,8.48
2022-11-18T01:41:17.727Z,8.49
2022-11-18T01:45:14.351Z,8.57
2022-11-18T01:48:22.721Z,8.53
2022-11-18T01:51:33.622Z,8.57
2022-11-18T01:54:39.760Z,8.57
2022-11-18T01:57:43.519Z,8.57
2022-11-18T02:00:45.728Z,8.62
2022-11-18T02:03:49.655Z,8.72
2022-11-18T02:06:52.532Z,8.66
2022-11-18T02:09:58.001Z,8.75
2022-11-18T02:13:03.720Z,8.73
2022-11-18T02:16:18.367Z,8.75
2022-11-18T02:19:29.548Z,8.77
2022-11-18T02:23:01.011Z,8.79
2022-11-18T02:26:26.269Z,8.70
2022-11-18T02:29:44.915Z,8.72
2022-11-18T02:32:56.338Z,8.66
2022-11-18T02:36:12.143Z,8.41
2022-11-18T02:39:21.200Z,8.26
2022-11-18T02:42:26.286Z,8.22
2022-11-18T02:45:30.698Z,8.50
2022-11-18T02:48:36.695Z,8.53
2022-11-18T02:51:40.448Z,8.45
2022-11-18T02:54:44.822Z,8.34
2022-11-18T02:57:48.059Z,8.41
2022-11-18T03:01:01.766Z,8.49
2022-11-18T03:04:04.471Z,8.46
2022-11-18T03:07:22.921Z,8.38
2022-11-18T03:10:35.892Z,8.53
2022-11-18T03:14:03.389Z,8.57
2022-11-18T03:17:31.682Z,8.55
2022-11-18T03:20:38.640Z,8.53
2022-11-18T03:23:48.405Z,8.35
2022-11-18T03:27:00.998Z,8.21
2022-11-18T03:30:08.096Z,8.42
2022-11-18T03:33:14.395Z,8.34
2022-11-18T03:36:19.637Z,8.34
2022-11-18T03:39:23.731Z,8.16
2022-11-18T03:42:35.279Z,8.20
2022-11-18T03:45:47.061Z,8.12
2022-11-18T03:48:54.846Z,8.12
2022-11-18T03:52:07.665Z,8.14
2022-11-18T03:55:16.108Z,8.24
2022-11-18T03:58:28.768Z,8.31
2022-11-18T04:01:47.516Z,8.39
2022-11-18T04:04:52.232Z,8.24
2022-11-18T04:08:02.679Z,8.12
2022-11-18T04:11:38.004Z,8.04
2022-11-18T04:14:43.302Z,7.98
2022-11-18T04:17:45.528Z,8.04
2022-11-18T04:20:47.821Z,8.18
2022-11-18T04:23:50.019Z,8.18
2022-11-18T04:26:52.219Z,8.14
2022-11-18T04:29:54.395Z,8.04
2022-11-18T04:32:57.302Z,7.98
2022-11-18T04:35:59.526Z,7.88
2022-11-18T04:39:01.867Z,7.91
2022-11-18T04:42:04.225Z,7.91
2022-11-18T04:45:07.382Z,7.95
2022-11-18T04:48:09.609Z,7.93
2022-11-18T04:51:11.852Z,8.09
2022-11-18T04:54:15.383Z,8.12
2022-11-18T04:57:17.644Z,8.09
2022-11-18T05:00:21.475Z,7.99
2022-11-18T05:03:23.722Z,8.20
2022-11-18T05:06:26.008Z,8.22
2022-11-18T05:09:32.001Z,8.21
2022-11-18T05:12:49.685Z,8.28
2022-11-18T05:15:51.934Z,8.35
2022-11-18T05:18:54.182Z,8.14
2022-11-18T05:21:56.618Z,7.99
2022-11-18T05:24:58.918Z,8.04
2022-11-18T05:28:01.169Z,7.97
2022-11-18T05:31:10.990Z,7.94
2022-11-18T05:34:13.903Z,7.94
2022-11-18T05:37:16.100Z,7.95
2022-11-18T05:40:18.423Z,7.91
2022-11-18T05:43:20.661Z,8.05
2022-11-18T05:46:22.963Z,8.08
2022-11-18T05:49:25.692Z,8.15
2022-11-18T05:52:28.289Z,8.09
2022-11-18T05:55:45.923Z,8.05
2022-11-18T05:58:48.472Z,8.05
2022-11-18T06:02:07.259Z,8.07
2022-11-18T06:05:11.683Z,8.15
2022-11-18T06:08:17.816Z,8.28
2022-11-18T06:11:21.366Z,8.15
2022-11-18T06:14:40.184Z,7.98
2022-11-18T06:17:48.458Z,7.87
2022-11-18T06:20:54.465Z,7.81
2022-11-18T06:23:57.008Z,7.80
2022-11-18T06:26:59.925Z,7.91
2022-11-18T06:30:02.369Z,7.90
2022-11-18T06:33:04.614Z,7.99
2022-11-18T06:36:07.230Z,7.98
2022-11-18T06:39:09.444Z,7.90
2022-11-18T06:42:12.057Z,7.85
2022-11-18T06:45:14.437Z,7.84
2022-11-18T06:48:16.711Z,7.84
2022-11-18T06:51:19.191Z,7.84
2022-11-18T06:54:21.515Z,7.85
2022-11-18T06:57:23.724Z,7.90
2022-11-18T07:00:25.943Z,7.93
2022-11-18T07:03:29.911Z,7.91
2022-11-18T07:06:34.819Z,7.95
2022-11-18T07:09:37.623Z,7.97
2022-11-18T07:12:39.855Z,7.99
2022-11-18T07:15:42.031Z,8.15
2022-11-18T07:18:45.855Z,8.26
2022-11-18T07:21:48.036Z,8.38
2022-11-18T07:24:50.302Z,8.50
2022-11-18T07:27:52.597Z,8.38
2022-11-18T07:31:05.565Z,8.44
2022-11-18T07:34:08.164Z,8.48
2022-11-18T07:37:10.478Z,8.57
2022-11-18T07:40:12.716Z,8.57
2022-11-18T07:43:15.032Z,8.53
2022-11-18T07:46:37.373Z,8.50
2022-11-18T07:49:39.646Z,8.48
2022-11-18T07:52:41.871Z,8.46
2022-11-18T07:55:44.115Z,8.46
2022-11-18T07:58:46.767Z,8.59
2022-11-18T08:01:50.756Z,8.57
2022-11-18T08:04:53.331Z,8.70
2022-11-18T08:07:56.975Z,8.76
2022-11-18T08:11:01.249Z,8.81
2022-11-18T08:14:06.444Z,8.69
2022-11-18T08:17:08.648Z,8.69
2022-11-18T08:20:11.543Z,8.69
2022-11-18T08:23:14.877Z,8.73
2022-11-18T08:26:17.405Z,8.63
2022-11-18T08:29:24.776Z,8.60
2022-11-18T08:32:31.279Z,8.66
2022-11-18T08:35:34.193Z,8.72
2022-11-18T08:38:36.563Z,8.87
2022-11-18T08:41:43.646Z,8.79
2022-11-18T08:44:46.097Z,8.79
2022-11-18T08:47:48.319Z,8.90
2022-11-18T08:50:50.558Z,9.04
2022-11-18T08:53:52.797Z,9.18
2022-11-18T08:56:55.806Z,9.23
2022-11-18T08:59:58.071Z,9.08
2022-11-18T09:03:00.333Z,9.08
2022-11-18T09:06:13.515Z,9.11
2022-11-18T09:09:16.096Z,9.11
2022-11-18T09:12:18.367Z,9.08
2022-11-18T09:15:27.415Z,9.01
2022-11-18T09:18:30.310Z,8.99
2022-11-18T09:21:36.776Z,9.23
2022-11-18T09:24:48.257Z,9.01
2022-11-18T09:27:52.668Z,9.06
2022-11-18T09:30:55.358Z,9.14
2022-11-18T09:34:00.826Z,9.18
2022-11-18T09:37:06.911Z,9.18
2022-11-18T09:40:17.723Z,9.24
2022-11-18T09:43:28.635Z,9.39
2022-11-18T09:47:01.651Z,9.38
2022-11-18T09:50:34.023Z,9.58
2022-11-18T09:53:30.800Z,9.62
2022-11-18T09:56:33.169Z,9.68
2022-11-18T09:59:35.533Z,9.49
2022-11-18T10:02:52.360Z,9.52
2022-11-18T10:06:07.095Z,9.59
2022-11-18T10:09:34.604Z,9.57
2022-11-18T10:13:02.991Z,9.62
2022-11-18T10:16:21.886Z,9.71
2022-11-18T10:19:49.948Z,9.77
2022-11-18T10:23:16.808Z,9.77
2022-11-18T10:26:37.027Z,9.75
2022-11-18T10:29:39.982Z,9.81
2022-11-18T10:33:00.534Z,9.95
2022-11-18T10:36:30.608Z,9.95
2022-11-18T10:39:33.182Z,10.13
2022-11-18T10:42:37.696Z,10.10
2022-11-18T10:45:40.080Z,10.23
2022-11-18T10:48:42.409Z,10.47
2022-11-18T10:52:03.374Z,10.41
2022-11-18T10:55:25.877Z,10.53
2022-11-18T10:58:30.833Z,10.51
2022-11-18T11:01:33.191Z,10.54
2022-11-18T11:04:37.380Z,10.57
2022-11-18T11:07:40.551Z,10.51
2022-11-18T11:10:55.540Z,10.64
2022-11-18T11:14:22.765Z,10.70
2022-11-18T11:18:24.543Z,10.78
2022-11-18T11:21:30.636Z,10.70
2022-11-18T11:24:32.931Z,10.64
2022-11-18T11:28:16.994Z,10.49
2022-11-18T11:31:29.049Z,10.43
2022-11-18T11:35:07.212Z,10.34
2022-11-18T11:38:35.256Z,10.40
2022-11-18T11:42:06.219Z,10.41
2022-11-18T11:45:35.473Z,10.50
2022-11-18T11:49:02.073Z,10.61
2022-11-18T11:52:15.264Z,10.68
2022-11-18T11:55:48.302Z,10.71
2022-11-18T11:59:07.076Z,10.74
2022-11-18T12:02:35.134Z,10.67
2022-11-18T12:05:39.564Z,10.60
2022-11-18T12:09:03.905Z,10.68
2022-11-18T12:12:48.051Z,10.65
2022-11-18T12:15:53.044Z,10.72
2022-11-18T12:19:00.209Z,10.91
2022-11-18T12:22:04.106Z,10.98
2022-11-18T12:25:43.828Z,11.12
2022-11-18T12:28:46.379Z,11.18
2022-11-18T12:31:51.888Z,11.19
2022-11-18T12:35:39.348Z,11.09
2022-11-18T12:38:41.600Z,11.11
2022-11-18T12:42:05.236Z,11.08
2022-11-18T12:45:41.142Z,10.88
2022-11-18T12:48:43.447Z,11.04
2022-11-18T12:51:46.329Z,11.07
2022-11-18T12:54:49.841Z,11.12
2022-11-18T12:57:54.812Z,11.07
2022-11-18T13:01:13.631Z,11.04
2022-11-18T13:04:20.048Z,11.08
2022-11-18T13:07:44.917Z,11.12
2022-11-18T13:10:55.932Z,11.18
2022-11-18T13:14:16.843Z,11.16
2022-11-18T13:17:54.471Z,11.12
2022-11-18T13:20:58.836Z,11.02
2022-11-18T13:24:01.222Z,11.05
2022-11-18T13:27:05.028Z,11.04
2022-11-18T13:30:12.871Z,11.02
2022-11-18T13:33:15.179Z,11.05
2022-11-18T13:36:26.021Z,11.08
2022-11-18T13:39:31.295Z,11.08
2022-11-18T13:42:33.598Z,11.05
2022-11-18T13:45:35.964Z,11.07
2022-11-18T13:48:46.824Z,11.09
2022-11-18T13:51:49.124Z,11.05
2022-11-18T13:54:54.853Z,11.11
2022-11-18T13:58:05.198Z,11.07
2022-11-18T14:01:15.825Z,11.02
2022-11-18T14:04:22.176Z,11.01
2022-11-18T14:07:32.378Z,10.95
2022-11-18T14:10:43.084Z,10.98
2022-11-18T14:13:52.011Z,10.94
2022-11-18T14:16:54.357Z,10.91
2022-11-18T14:19:58.624Z,10.88
2022-11-18T14:23:03.271Z,10.85
2022-11-18T14:26:06.841Z,10.70
2022-11-18T14:29:22.997Z,10.68
2022-11-18T14:32:27.994Z,10.51
2022-11-18T14:35:33.605Z,10.43
2022-11-18T14:39:25.914Z,10.34
2022-11-18T14:42:13.189Z,10.23
2022-11-18T14:45:15.560Z,10.19
2022-11-18T14:48:20.588Z,10.12
2022-11-18T14:51:29.534Z,9.98
2022-11-18T14:54:31.861Z,9.89
2022-11-18T14:57:34.213Z,9.89
2022-11-18T15:00:36.479Z,9.74
2022-11-18T15:03:39.602Z,9.63
2022-11-18T15:06:41.840Z,9.68
2022-11-18T15:09:44.237Z,9.69
2022-11-18T15:12:46.436Z,9.63
2022-11-18T15:15:48.755Z,9.57
2022-11-18T15:18:53.458Z,9.45
2022-11-18T15:21:55.867Z,9.47
2022-11-18T15:24:58.118Z,9.32
2022-11-18T15:28:00.394Z,9.30
2022-11-18T15:31:02.594Z,9.34
2022-11-18T15:34:06.902Z,9.26
2022-11-18T15:37:12.366Z,9.32
2022-11-18T15:40:14.619Z,9.30
2022-11-18T15:43:17.927Z,9.26
2022-11-18T15:46:21.605Z,9.26
2022-11-18T15:49:23.827Z,9.26
2022-11-18T15:52:27.254Z,9.26
2022-11-18T15:55:29.492Z,9.27
2022-11-18T15:58:35.884Z,9.28
2022-11-18T16:01:40.918Z,9.21
2022-11-18T16:04:43.314Z,9.07
2022-11-18T16:07:45.607Z,9.10
2022-11-18T16:11:06.113Z,8.96
2022-11-18T16:14:10.385Z,9.11
2022-11-18T16:17:12.599Z,9.07
2022-11-18T16:20:14.841Z,9.01
2022-11-18T16:23:17.091Z,8.94
2022-11-18T16:26:19.331Z,8.94
2022-11-18T16:29:23.270Z,8.99
2022-11-18T16:32:26.090Z,9.01
2022-11-18T16:35:28.305Z,9.00
2022-11-18T16:38:31.148Z,9.08
2022-11-18T16:41:33.679Z,9.17
2022-11-18T16:44:37.121Z,9.16
2022-11-18T16:47:39.359Z,9.16
2022-11-18T16:50:41.570Z,9.17
2022-11-18T16:53:43.920Z,9.16
2022-11-18T16:56:47.644Z,9.10
2022-11-18T16:59:49.875Z,8.94
2022-11-18T17:02:52.154Z,9.03
2022-11-18T17:05:54.427Z,9.07
2022-11-18T17:08:57.863Z,9.01
2022-11-18T17:12:00.064Z,8.96
2022-11-18T17:15:02.249Z,8.83
2022-11-18T17:18:04.563Z,8.84
2022-11-18T17:21:12.581Z,8.93
2022-11-18T17:24:17.881Z,8.94
2022-11-18T17:27:20.389Z,8.96
2022-11-18T17:30:22.735Z,9.01
2022-11-18T17:33:24.934Z,9.01
2022-11-18T17:36:28.174Z,9.08
2022-11-18T17:39:32.018Z,9.03
2022-11-18T17:42:34.263Z,9.01
2022-11-18T17:45:41.188Z,9.03
2022-11-18T17:48:43.428Z,9.08
2022-11-18T17:51:46.268Z,9.06
2022-11-18T17:54:48.590Z,9.08
2022-11-18T17:57:50.863Z,9.11
2022-11-18T18:00:53.100Z,9.16
2022-11-18T18:03:55.407Z,9.00
2022-11-18T18:06:57.790Z,9.06
2022-11-18T18:10:00.049Z,8.99
2022-11-18T18:13:20.806Z,9.04
2022-11-18T18:16:23.175Z,9.01
2022-11-18T18:19:25.509Z,9.04
2022-11-18T18:22:27.780Z,8.94
2022-11-18T18:25:30.466Z,8.94
2022-11-18T18:28:33.460Z,8.91
2022-11-18T18:31:37.403Z,8.94
2022-11-18T18:34:39.622Z,8.91
2022-11-18T18:37:41.901Z,8.91
2022-11-18T18:40:44.092Z,8.80
2022-11-18T18:43:47.171Z,8.73
2022-11-18T18:46:49.354Z,8.77
2022-11-18T18:49:51.594Z,8.69
2022-11-18T18:52:53.789Z,8.76
2022-11-18T18:55:56.746Z,8.79
2022-11-18T18:58:59.576Z,8.81
2022-11-18T19:02:02.339Z,8.76
2022-11-18T19:05:05.066Z,8.80
2022-11-18T19:08:07.410Z,8.83
2022-11-18T19:11:09.699Z,8.89
2022-11-18T19:14:14.056Z,8.80
2022-11-18T19:17:16.314Z,8.89
2022-11-18T19:20:33.741Z,8.89
2022-11-18T19:23:35.996Z,8.87
2022-11-18T19:26:38.298Z,8.80
2022-11-18T19:29:40.495Z,8.87
2022-11-18T19:32:43.048Z,8.91
2022-11-18T19:35:45.463Z,8.83
2022-11-18T19:38:50.611Z,8.91
2022-11-18T19:41:52.827Z,8.97
2022-11-18T19:44:55.203Z,8.96
2022-11-18T19:47:59.218Z,8.96
2022-11-18T19:51:05.459Z,8.96
2022-11-18T19:54:07.688Z,8.91
2022-11-18T19:57:09.964Z,9.00
2022-11-18T20:00:12.646Z,9.01
2022-11-18T20:03:15.739Z,9.06
2022-11-18T20:06:19.852Z,9.06
2022-11-18T20:09:22.451Z,9.01
2022-11-18T20:12:25.272Z,8.96
2022-11-18T20:15:27.487Z,8.99
2022-11-18T20:18:30.351Z,8.99
2022-11-18T20:21:33.104Z,8.97
2022-11-18T20:24:35.321Z,8.89
2022-11-18T20:27:37.849Z,8.96
2022-11-18T20:30:40.225Z,8.93
2022-11-18T20:33:48.491Z,8.83
2022-11-18T20:36:52.902Z,8.83
2022-11-18T20:39:55.151Z,8.91
2022-11-18T20:43:12.466Z,8.94
2022-11-18T20:46:20.353Z,8.93
2022-11-18T20:49:23.327Z,8.86
2022-11-18T20:52:25.560Z,8.79
2022-11-18T20:55:29.035Z,8.77
2022-11-18T20:58:31.893Z,8.80
2022-11-18T21:01:34.373Z,8.75
2022-11-18T21:04:36.682Z,8.76
2022-11-18T21:07:38.975Z,8.79
2022-11-18T21:10:41.918Z,8.80
2022-11-18T21:14:02.304Z,8.69
2022-11-18T21:17:04.769Z,8.66
2022-11-18T21:20:27.639Z,8.72
2022-11-18T21:23:29.844Z,8.67
2022-11-18T21:26:33.616Z,8.67
2022-11-18T21:29:35.923Z,8.66
2022-11-18T21:32:38.328Z,8.57
2022-11-18T21:35:40.578Z,8.53
2022-11-18T21:38:42.830Z,8.60
2022-11-18T21:41:45.133Z,8.59
2022-11-18T21:44:48.474Z,8.56
2022-11-18T21:47:50.692Z,8.57
2022-11-18T21:50:52.927Z,8.62
2022-11-18T21:53:55.256Z,8.62
2022-11-18T21:56:57.479Z,8.57
2022-11-18T21:59:59.696Z,8.63
2022-11-18T22:03:01.936Z,8.67
2022-11-18T22:06:04.672Z,8.72
2022-11-18T22:09:07.242Z,8.66
2022-11-18T22:12:09.862Z,8.53
2022-11-18T22:15:12.106Z,8.50
2022-11-18T22:18:14.370Z,8.39
2022-11-18T22:21:19.646Z,8.39
2022-11-18T22:24:22.004Z,8.34
2022-11-18T22:27:24.286Z,8.24
2022-11-18T22:30:26.485Z,8.22
2022-11-18T22:33:28.703Z,8.18
2022-11-18T22:36:32.253Z,8.14
2022-11-18T22:39:34.528Z,8.16
2022-11-18T22:42:48.580Z,8.12
2022-11-18T22:46:06.627Z,8.05
2022-11-18T22:49:09.922Z,7.99
2022-11-18T22:52:12.202Z,8.01
2022-11-18T22:55:14.431Z,7.93
2022-11-18T22:58:16.746Z,7.99
2022-11-18T23:01:20.874Z,8.02
2022-11-18T23:04:23.096Z,8.12
2022-11-18T23:07:25.480Z,8.18
2022-11-18T23:10:27.703Z,8.12
2022-11-18T23:13:48.894Z,8.26
2022-11-18T23:16:51.136Z,8.28
2022-11-18T23:19:53.458Z,8.32
2022-11-18T23:22:55.679Z,8.24
2022-11-18T23:26:09.799Z,8.21
2022-11-18T23:29:13.041Z,8.25
2022-11-18T23:32:15.314Z,8.26
2022-11-18T23:35:17.503Z,8.21
2022-11-18T23:38:19.739Z,8.18
2022-11-18T23:41:22.491Z,8.15
2022-11-18T23:44:44.664Z,8.22
2022-11-18T23:47:46.900Z,8.21
2022-11-18T23:50:58.019Z,8.15
2022-11-18T23:54:00.298Z,8.18
2022-11-18T23:57:05.234Z,8.21
